createdAt,value
2022-11-15T00:00:52.238Z,1.20
2022-11-15T00:03:21.234Z,1.20
2022-11-15T00:05:49.272Z,1.27
2022-11-15T00:08:17.000Z,1.33
2022-11-15T00:10:44.979Z,1.10
2022-11-15T00:13:14.552Z,1.20
2022-11-15T00:15:43.007Z,1.30
2022-11-15T00:18:16.168Z,1.30
2022-11-15T00:20:44.735Z,1.10
2022-11-15T00:23:12.413Z,1.30
2022-11-15T00:25:39.946Z,1.20
2022-11-15T00:28:07.455Z,1.25
2022-11-15T00:30:35.636Z,1.30
2022-11-15T00:36:03.565Z,1.20
2022-11-15T00:38:33.398Z,1.40
2022-11-15T00:41:06.249Z,1.55
2022-11-15T00:43:36.938Z,1.40
2022-11-15T00:46:04.752Z,1.30
2022-11-15T00:48:32.375Z,1.40
2022-11-15T00:51:00.108Z,1.20
2022-11-15T00:53:29.474Z,1.30
2022-11-15T00:55:57.224Z,1.30
2022-11-15T00:58:24.763Z,1.40
2022-11-15T01:00:52.309Z,1.30
2022-11-15T01:03:19.793Z,1.40
2022-11-15T01:05:48.239Z,1.40
2022-11-15T01:08:17.169Z,1.30
2022-11-15T01:10:46.009Z,1.40
2022-11-15T01:13:13.570Z,1.10
2022-11-15T01:15:42.206Z,1.15
2022-11-15T01:18:09.744Z,1.00
2022-11-15T01:20:41.547Z,1.10
2022-11-15T01:23:09.155Z,1.20
2022-11-15T01:25:36.654Z,1.30
2022-11-15T01:28:05.655Z,1.08
2022-11-15T01:30:33.147Z,1.20
2022-11-15T01:33:00.772Z,1.10
2022-11-15T01:35:28.251Z,1.40
2022-11-15T01:37:55.715Z,1.40
2022-11-15T01:40:23.358Z,1.30
2022-11-15T01:42:50.828Z,1.25
2022-11-15T01:45:19.617Z,1.30
2022-11-15T01:47:50.684Z,1.33
2022-11-15T01:50:21.981Z,1.17
2022-11-15T01:52:49.772Z,1.40
2022-11-15T01:55:21.744Z,1.50
2022-11-15T01:57:52.978Z,1.30
2022-11-15T02:00:21.947Z,1.20
2022-11-15T02:02:49.615Z,1.40
2022-11-15T02:05:17.383Z,1.27
2022-11-15T02:07:45.014Z,1.33
2022-11-15T02:10:16.328Z,1.33
2022-11-15T02:12:44.053Z,1.52
2022-11-15T02:15:12.832Z,1.63
2022-11-15T02:17:56.666Z,1.50
2022-11-15T02:20:46.309Z,1.63
2022-11-15T02:23:40.845Z,1.50
2022-11-15T02:26:26.521Z,1.70
2022-11-15T02:29:00.932Z,1.30
2022-11-15T02:31:37.169Z,1.65
2022-11-15T02:34:14.202Z,1.50
2022-11-15T02:36:49.643Z,1.60
2022-11-15T02:39:22.933Z,1.60
2022-11-15T02:41:55.305Z,1.58
2022-11-15T02:44:27.644Z,1.63
2022-11-15T02:47:16.015Z,1.60
2022-11-15T02:49:47.125Z,1.50
2022-11-15T02:52:17.011Z,1.80
2022-11-15T02:54:44.572Z,1.73
2022-11-15T02:57:17.547Z,1.70
2022-11-15T03:00:02.917Z,1.77
2022-11-15T03:02:44.456Z,1.67
2022-11-15T03:05:22.138Z,1.70
2022-11-15T03:08:01.912Z,1.70
2022-11-15T03:10:37.957Z,1.80
2022-11-15T03:13:15.951Z,1.75
2022-11-15T03:15:53.256Z,1.83
2022-11-15T03:18:27.803Z,1.67
2022-11-15T03:20:57.508Z,1.70
2022-11-15T03:23:26.403Z,1.63
2022-11-15T03:25:56.662Z,1.60
2022-11-15T03:28:27.407Z,1.50
2022-11-15T03:30:57.254Z,1.60
2022-11-15T03:33:27.024Z,1.50
2022-11-15T03:35:55.912Z,1.45
2022-11-15T03:38:26.623Z,1.40
2022-11-15T03:41:00.278Z,1.60
2022-11-15T03:43:35.752Z,1.80
2022-11-15T03:46:08.136Z,1.60
2022-11-15T03:48:45.391Z,1.48
2022-11-15T03:51:13.527Z,1.52
2022-11-15T03:53:42.902Z,1.50
2022-11-15T03:56:10.402Z,1.40
2022-11-15T03:58:37.861Z,1.55
2022-11-15T04:01:05.837Z,1.63
2022-11-15T04:03:33.676Z,1.80
2022-11-15T04:06:02.718Z,1.65
2022-11-15T04:08:30.173Z,1.50
2022-11-15T04:10:57.673Z,1.52
2022-11-15T04:13:25.171Z,1.50
2022-11-15T04:15:53.685Z,1.73
2022-11-15T04:18:21.204Z,1.67
2022-11-15T04:21:06.268Z,1.50
2022-11-15T04:24:11.887Z,1.50
2022-11-15T04:26:39.451Z,1.50
2022-11-15T04:29:24.744Z,1.50
2022-11-15T04:31:53.385Z,1.50
2022-11-15T04:34:21.134Z,1.55
2022-11-15T04:37:06.483Z,1.60
2022-11-15T04:39:35.350Z,1.63
2022-11-15T04:42:02.818Z,1.58
2022-11-15T04:44:30.291Z,1.65
2022-11-15T04:46:58.467Z,1.65
2022-11-15T04:49:25.970Z,1.75
2022-11-15T04:51:53.848Z,1.50
2022-11-15T04:54:21.363Z,1.52
2022-11-15T04:56:50.187Z,1.60
2022-11-15T04:59:17.678Z,1.63
2022-11-15T05:01:45.480Z,1.52
2022-11-15T05:04:21.250Z,1.50
2022-11-15T05:06:53.116Z,1.50
2022-11-15T05:09:22.260Z,1.50
2022-11-15T05:11:51.196Z,1.70
2022-11-15T05:14:18.830Z,1.85
2022-11-15T05:16:46.458Z,1.73
2022-11-15T05:19:13.956Z,1.70
2022-11-15T05:21:41.580Z,1.70
2022-11-15T05:24:11.951Z,1.73
2022-11-15T05:26:39.418Z,1.73
2022-11-15T05:29:08.215Z,1.80
2022-11-15T05:31:35.736Z,1.52
2022-11-15T05:34:06.538Z,1.77
2022-11-15T05:36:37.875Z,1.85
2022-11-15T05:39:09.051Z,1.58
2022-11-15T05:41:40.824Z,1.80
2022-11-15T05:44:12.432Z,1.65
2022-11-15T05:46:42.447Z,1.88
2022-11-15T05:49:15.379Z,1.83
2022-11-15T05:51:45.111Z,1.75
2022-11-15T05:54:13.315Z,1.77
2022-11-15T05:56:41.265Z,1.75
2022-11-15T05:59:11.443Z,1.88
2022-11-15T06:01:40.424Z,1.80
2022-11-15T06:04:08.556Z,1.90
2022-11-15T06:06:36.056Z,1.88
2022-11-15T06:09:03.591Z,1.95
2022-11-15T06:11:31.233Z,2.30
2022-11-15T06:13:58.707Z,2.35
2022-11-15T06:16:27.538Z,1.70
2022-11-15T06:18:55.046Z,1.55
2022-11-15T06:21:22.688Z,1.60
2022-11-15T06:23:50.292Z,1.77
2022-11-15T06:26:17.746Z,1.80
2022-11-15T06:28:45.229Z,1.63
2022-11-15T06:31:13.727Z,1.60
2022-11-15T06:33:43.137Z,1.60
2022-11-15T06:36:17.517Z,1.73
2022-11-15T06:38:49.063Z,1.52
2022-11-15T06:41:17.790Z,1.70
2022-11-15T06:43:45.631Z,1.60
2022-11-15T06:46:13.095Z,1.63
2022-11-15T06:48:41.925Z,1.60
2022-11-15T06:51:09.485Z,1.90
2022-11-15T06:53:37.511Z,1.60
2022-11-15T06:56:07.119Z,1.60
2022-11-15T06:58:34.764Z,1.90
2022-11-15T07:01:03.629Z,1.70
2022-11-15T07:03:31.462Z,1.52
2022-11-15T07:06:06.621Z,1.60
2022-11-15T07:08:34.765Z,1.80
2022-11-15T07:11:04.474Z,1.50
2022-11-15T07:13:34.731Z,1.80
2022-11-15T07:16:04.246Z,1.52
2022-11-15T07:18:31.918Z,1.50
2022-11-15T07:21:04.574Z,1.30
2022-11-15T07:23:33.548Z,1.30
2022-11-15T07:26:02.063Z,1.40
2022-11-15T07:28:29.803Z,1.40
2022-11-15T07:30:57.625Z,1.50
2022-11-15T07:33:25.087Z,1.40
2022-11-15T07:35:52.556Z,1.20
2022-11-15T07:38:21.463Z,1.25
2022-11-15T07:40:57.387Z,1.10
2022-11-15T07:43:24.846Z,1.20
2022-11-15T07:45:58.619Z,1.00
2022-11-15T07:48:35.593Z,1.10
2022-11-15T07:51:13.792Z,1.20
2022-11-15T07:53:43.058Z,1.13
2022-11-15T07:56:11.155Z,1.00
2022-11-15T07:58:38.876Z,1.00
2022-11-15T08:01:07.100Z,1.00
2022-11-15T08:03:35.529Z,1.15
2022-11-15T08:06:03.706Z,1.20
2022-11-15T08:08:31.160Z,1.15
2022-11-15T08:11:00.745Z,0.95
2022-11-15T08:13:28.810Z,0.93
2022-11-15T08:15:59.978Z,1.10
2022-11-15T08:18:27.458Z,1.00
2022-11-15T08:20:54.928Z,1.00
2022-11-15T08:23:22.432Z,0.90
2022-11-15T08:25:49.899Z,0.90
2022-11-15T08:28:19.193Z,1.00
2022-11-15T08:30:46.728Z,0.90
2022-11-15T08:33:15.508Z,1.00
2022-11-15T08:35:44.330Z,1.00
2022-11-15T08:38:11.829Z,0.93
2022-11-15T08:40:39.726Z,1.08
2022-11-15T08:43:07.483Z,1.10
2022-11-15T08:45:37.626Z,1.00
2022-11-15T08:48:05.570Z,1.00
2022-11-15T08:50:33.223Z,0.93
2022-11-15T08:53:06.832Z,0.90
2022-11-15T08:55:35.509Z,0.90
2022-11-15T08:58:03.034Z,0.80
2022-11-15T09:00:30.556Z,0.80
2022-11-15T09:03:00.351Z,0.80
2022-11-15T09:05:28.528Z,0.90
2022-11-15T09:07:56.487Z,0.70
2022-11-15T09:10:25.109Z,0.60
2022-11-15T09:12:53.184Z,0.70
2022-11-15T09:15:20.951Z,0.70
2022-11-15T09:17:48.436Z,0.70
2022-11-15T09:20:18.093Z,0.70
2022-11-15T09:22:45.630Z,0.68
2022-11-15T09:25:13.128Z,0.77
2022-11-15T09:27:40.719Z,0.70
2022-11-15T09:30:09.231Z,0.60
2022-11-15T09:32:39.346Z,0.60
2022-11-15T09:35:07.633Z,0.70
2022-11-15T09:37:36.422Z,0.70
2022-11-15T09:40:04.442Z,0.90
2022-11-15T09:42:49.934Z,0.63
2022-11-15T09:45:24.286Z,0.52
2022-11-15T09:48:20.023Z,0.70
2022-11-15T09:50:50.578Z,0.50
2022-11-15T09:53:57.516Z,0.60
2022-11-15T09:56:18.916Z,0.60
2022-11-15T09:58:56.187Z,0.77
2022-11-15T10:01:37.711Z,0.70
2022-11-15T10:04:09.139Z,0.60
2022-11-15T10:06:45.288Z,0.60
2022-11-15T10:09:22.677Z,0.60
2022-11-15T10:11:51.968Z,0.60
2022-11-15T10:14:21.874Z,0.60
2022-11-15T10:17:11.295Z,0.63
2022-11-15T10:19:49.619Z,0.60
2022-11-15T10:22:32.049Z,0.60
2022-11-15T10:25:14.574Z,0.70
2022-11-15T10:27:43.791Z,0.70
2022-11-15T10:30:15.128Z,0.60
2022-11-15T10:32:45.872Z,0.60
2022-11-15T10:35:22.394Z,0.70
2022-11-15T10:37:49.955Z,0.70
2022-11-15T10:40:22.293Z,0.60
2022-11-15T10:43:05.332Z,0.52
2022-11-15T10:45:35.069Z,0.70
2022-11-15T10:48:23.744Z,0.60
2022-11-15T10:50:53.559Z,0.70
2022-11-15T10:53:26.344Z,0.52
2022-11-15T10:55:57.774Z,0.60
2022-11-15T10:58:35.148Z,0.60
2022-11-15T11:01:15.208Z,0.65
2022-11-15T11:03:44.976Z,0.60
2022-11-15T11:06:15.144Z,0.60
2022-11-15T11:08:57.871Z,0.60
2022-11-15T11:11:27.046Z,0.70
2022-11-15T11:13:54.685Z,0.57
2022-11-15T11:16:43.103Z,0.52
2022-11-15T11:19:25.042Z,0.50
2022-11-15T11:22:00.722Z,0.50
2022-11-15T11:24:36.338Z,0.50
2022-11-15T11:27:27.906Z,0.40
2022-11-15T11:30:08.060Z,0.60
2022-11-15T11:32:55.081Z,0.50
2022-11-15T11:35:29.915Z,0.50
2022-11-15T11:38:09.387Z,0.60
2022-11-15T11:40:43.527Z,0.60
2022-11-15T11:43:20.252Z,0.52
2022-11-15T11:46:15.071Z,0.50
2022-11-15T11:48:44.586Z,0.60
2022-11-15T11:51:20.551Z,0.55
2022-11-15T11:53:55.979Z,0.50
2022-11-15T11:56:28.462Z,0.60
2022-11-15T11:59:02.453Z,0.60
2022-11-15T12:01:34.150Z,0.55
2022-11-15T12:04:06.747Z,0.60
2022-11-15T12:06:41.392Z,0.70
2022-11-15T12:09:16.590Z,0.50
2022-11-15T12:11:54.072Z,0.60
2022-11-15T12:14:34.456Z,0.60
2022-11-15T12:17:02.259Z,0.60
2022-11-15T12:19:31.079Z,0.60
2022-11-15T12:22:07.959Z,0.55
2022-11-15T12:24:42.680Z,0.60
2022-11-15T12:27:23.396Z,0.50
2022-11-15T12:29:58.853Z,0.60
2022-11-15T12:32:30.660Z,0.55
2022-11-15T12:34:59.889Z,0.70
2022-11-15T12:37:56.950Z,0.60
2022-11-15T12:40:39.192Z,0.50
2022-11-15T12:43:42.264Z,0.60
2022-11-15T12:46:21.589Z,0.60
2022-11-15T12:48:55.275Z,0.60
2022-11-15T12:51:44.651Z,0.60
2022-11-15T12:54:49.443Z,0.60
2022-11-15T12:57:31.343Z,0.60
2022-11-15T13:00:02.641Z,0.60
2022-11-15T13:02:32.273Z,0.50
2022-11-15T13:05:41.965Z,0.60
2022-11-15T13:08:09.802Z,0.60
2022-11-15T13:10:37.396Z,0.50
2022-11-15T13:13:10.233Z,0.60
2022-11-15T13:15:57.571Z,0.50
2022-11-15T13:18:54.717Z,0.50
2022-11-15T13:21:42.002Z,0.60
2022-11-15T13:24:18.503Z,0.50
2022-11-15T13:26:46.030Z,0.60
2022-11-15T13:29:20.503Z,0.50
2022-11-15T13:31:48.997Z,0.50
2022-11-15T13:34:50.039Z,0.60
2022-11-15T13:37:29.158Z,0.50
2022-11-15T13:42:24.596Z,0.60
2022-11-15T13:45:01.365Z,0.55
2022-11-15T13:47:30.290Z,0.60
2022-11-15T13:49:58.843Z,0.50
2022-11-15T13:52:32.904Z,0.60
2022-11-15T13:55:04.670Z,0.57
2022-11-15T13:57:40.338Z,0.60
2022-11-15T14:00:35.419Z,0.50
2022-11-15T14:03:10.065Z,0.65
2022-11-15T14:05:37.876Z,0.60
2022-11-15T14:08:23.656Z,0.60
2022-11-15T14:11:08.268Z,0.60
2022-11-15T14:16:20.120Z,0.90
2022-11-15T14:18:50.523Z,0.70
2022-11-15T14:21:18.993Z,0.50
2022-11-15T14:23:47.123Z,0.70
2022-11-15T14:26:29.984Z,0.60
2022-11-15T14:28:57.490Z,0.70
2022-11-15T14:31:26.308Z,0.70
2022-11-15T14:33:53.794Z,0.60
2022-11-15T14:36:22.885Z,0.70
2022-11-15T14:38:50.398Z,0.70
2022-11-15T14:41:22.447Z,0.70
2022-11-15T14:44:23.252Z,0.60
2022-11-15T14:46:52.082Z,0.60
2022-11-15T14:49:19.879Z,0.65
2022-11-15T14:51:47.532Z,0.70
2022-11-15T14:54:14.990Z,0.73
2022-11-15T14:56:43.555Z,0.75
2022-11-15T14:59:11.062Z,0.60
2022-11-15T15:01:41.961Z,0.70
2022-11-15T15:04:12.752Z,0.60
2022-11-15T15:06:40.278Z,0.70
2022-11-15T15:09:07.789Z,0.70
2022-11-15T15:11:35.586Z,0.70
2022-11-15T15:14:03.052Z,0.70
2022-11-15T15:16:30.606Z,0.60
2022-11-15T15:18:58.102Z,0.60
2022-11-15T15:21:32.340Z,0.70
2022-11-15T15:24:04.131Z,0.70
2022-11-15T15:26:34.574Z,0.68
2022-11-15T15:29:02.074Z,0.70
2022-11-15T15:31:29.679Z,0.65
2022-11-15T15:33:57.177Z,0.80
2022-11-15T15:36:24.675Z,0.82
2022-11-15T15:38:53.681Z,0.73
2022-11-15T15:41:22.128Z,0.70
2022-11-15T15:43:49.592Z,0.80
2022-11-15T15:46:18.611Z,0.80
2022-11-15T15:52:20.891Z,0.80
2022-11-15T15:54:49.671Z,0.80
2022-11-15T15:57:17.328Z,0.90
2022-11-15T15:59:44.820Z,0.70
2022-11-15T16:02:14.163Z,0.70
2022-11-15T16:04:41.898Z,0.80
2022-11-15T16:07:18.564Z,0.85
2022-11-15T16:10:04.638Z,0.80
2022-11-15T16:12:36.262Z,0.80
2022-11-15T16:15:04.745Z,0.80
2022-11-15T16:17:35.879Z,0.90
2022-11-15T16:20:03.682Z,0.85
2022-11-15T16:22:31.321Z,0.80
2022-11-15T16:24:58.951Z,0.90
2022-11-15T16:27:26.445Z,0.90
2022-11-15T16:29:55.246Z,0.98
2022-11-15T16:32:23.814Z,0.80
2022-11-15T16:34:51.325Z,0.93
2022-11-15T16:37:24.567Z,0.90
2022-11-15T16:39:55.977Z,1.00
2022-11-15T16:42:25.920Z,0.90
2022-11-15T16:44:54.744Z,0.80
2022-11-15T16:47:22.839Z,0.80
2022-11-15T16:49:50.332Z,0.90
2022-11-15T16:52:21.340Z,1.00
2022-11-15T16:54:49.136Z,1.00
2022-11-15T16:57:17.552Z,1.02
2022-11-15T16:59:45.063Z,1.30
2022-11-15T17:02:15.087Z,0.98
2022-11-15T17:04:42.598Z,1.05
2022-11-15T17:07:10.204Z,1.13
2022-11-15T17:09:37.712Z,0.95
2022-11-15T17:12:05.467Z,1.00
2022-11-15T17:14:32.969Z,0.95
2022-11-15T17:17:00.659Z,1.05
2022-11-15T17:19:29.491Z,1.00
2022-11-15T17:21:57.105Z,0.93
2022-11-15T17:27:16.157Z,0.95
2022-11-15T17:29:43.924Z,0.98
2022-11-15T17:32:11.363Z,0.90
2022-11-15T17:34:40.388Z,0.90
2022-11-15T17:37:07.971Z,1.00
2022-11-15T17:39:35.445Z,0.90
2022-11-15T17:42:02.905Z,0.82
2022-11-15T17:44:30.896Z,0.80
2022-11-15T17:46:58.562Z,0.90
2022-11-15T17:49:26.033Z,0.90
2022-11-15T17:51:54.864Z,0.90
2022-11-15T17:54:22.352Z,0.80
2022-11-15T17:59:41.088Z,0.95
2022-11-15T18:02:10.564Z,0.90
2022-11-15T18:04:38.119Z,0.90
2022-11-15T18:07:06.955Z,0.77
2022-11-15T18:09:34.490Z,0.85
2022-11-15T18:12:01.938Z,0.90
2022-11-15T18:14:29.705Z,0.90
2022-11-15T18:16:57.172Z,0.90
2022-11-15T18:19:24.663Z,1.10
2022-11-15T18:21:58.804Z,0.98
2022-11-15T18:24:29.530Z,0.88
2022-11-15T18:26:57.523Z,0.90
2022-11-15T18:29:25.584Z,1.00
2022-11-15T18:31:55.997Z,1.00
2022-11-15T18:34:24.659Z,0.90
2022-11-15T18:36:54.438Z,0.93
2022-11-15T18:39:22.277Z,0.93
2022-11-15T18:41:51.847Z,0.90
2022-11-15T18:44:19.709Z,0.90
2022-11-15T18:46:47.478Z,1.00
2022-11-15T18:49:17.859Z,1.00
2022-11-15T18:51:45.777Z,0.90
2022-11-15T18:54:15.097Z,1.00
2022-11-15T18:56:44.166Z,0.90
2022-11-15T18:59:13.051Z,0.95
2022-11-15T19:01:43.271Z,0.90
2022-11-15T19:04:12.835Z,1.00
2022-11-15T19:06:41.515Z,0.90
2022-11-15T19:09:10.233Z,1.10
2022-11-15T19:11:40.031Z,1.00
2022-11-15T19:14:09.537Z,0.90
2022-11-15T19:16:40.455Z,0.90
2022-11-15T19:19:11.292Z,0.88
2022-11-15T19:21:38.763Z,0.75
2022-11-15T19:24:06.994Z,0.80
2022-11-15T19:26:36.810Z,0.82
2022-11-15T19:29:05.683Z,0.95
2022-11-15T19:31:33.305Z,0.80
2022-11-15T19:34:05.176Z,0.80
2022-11-15T19:36:34.574Z,0.75
2022-11-15T19:39:08.275Z,0.80
2022-11-15T19:41:37.777Z,0.80
2022-11-15T19:44:05.829Z,0.70
2022-11-15T19:46:33.497Z,0.85
2022-11-15T19:49:02.868Z,0.75
2022-11-15T19:51:31.517Z,0.70
2022-11-15T19:54:05.095Z,0.70
2022-11-15T19:56:33.024Z,0.70
2022-11-15T19:59:00.485Z,0.70
2022-11-15T20:01:30.107Z,0.70
2022-11-15T20:03:59.807Z,0.73
2022-11-15T20:06:30.125Z,0.60
2022-11-15T20:08:58.054Z,0.68
2022-11-15T20:11:26.066Z,0.75
2022-11-15T20:13:57.742Z,0.73
2022-11-15T20:16:25.660Z,0.80
2022-11-15T20:18:53.683Z,0.75
2022-11-15T20:21:21.788Z,0.70
2022-11-15T20:23:51.580Z,0.80
2022-11-15T20:26:19.590Z,0.70
2022-11-15T20:28:48.071Z,0.80
2022-11-15T20:31:16.629Z,0.70
2022-11-15T20:33:44.505Z,0.70
2022-11-15T20:36:14.301Z,0.70
2022-11-15T20:38:42.167Z,0.65
2022-11-15T20:41:12.341Z,0.68
2022-11-15T20:43:43.148Z,0.73
2022-11-15T20:46:11.196Z,0.60
2022-11-15T20:48:38.863Z,0.75
2022-11-15T20:51:08.503Z,0.68
2022-11-15T20:53:36.232Z,0.77
2022-11-15T20:56:07.551Z,0.70
2022-11-15T20:58:37.005Z,0.70
2022-11-15T21:01:05.258Z,0.80
2022-11-15T21:03:33.314Z,0.70
2022-11-15T21:06:01.371Z,0.90
2022-11-15T21:08:52.765Z,0.77
2022-11-15T21:11:38.374Z,0.90
2022-11-15T21:14:09.561Z,0.80
2022-11-15T21:16:37.599Z,0.80
2022-11-15T21:19:06.131Z,0.82
2022-11-15T21:21:33.941Z,0.80
2022-11-15T21:24:03.381Z,0.80
2022-11-15T21:26:30.886Z,0.80
2022-11-15T21:28:58.492Z,0.82
2022-11-15T21:31:27.643Z,0.65
2022-11-15T21:33:55.190Z,0.80
2022-11-15T21:36:22.796Z,0.85
2022-11-15T21:38:50.279Z,0.80
2022-11-15T21:41:17.747Z,0.80
2022-11-15T21:43:45.199Z,0.85
2022-11-15T21:46:12.666Z,0.90
2022-11-15T21:48:41.487Z,0.77
2022-11-15T21:51:12.178Z,0.77
2022-11-15T21:53:39.672Z,0.82
2022-11-15T21:56:08.042Z,0.73
2022-11-15T21:58:36.269Z,0.73
2022-11-15T22:01:22.448Z,0.80
2022-11-15T22:03:51.791Z,0.68
2022-11-15T22:06:19.275Z,0.68
2022-11-15T22:08:47.299Z,0.73
2022-11-15T22:11:15.190Z,0.73
2022-11-15T22:13:43.244Z,0.73
2022-11-15T22:16:11.070Z,0.73
2022-11-15T22:18:39.378Z,0.70
2022-11-15T22:21:11.848Z,0.73
2022-11-15T22:23:39.608Z,0.80
2022-11-15T22:26:08.431Z,0.80
2022-11-15T22:28:36.375Z,0.80
2022-11-15T22:31:04.774Z,0.80
2022-11-15T22:33:34.369Z,0.77
2022-11-15T22:36:02.876Z,0.80
2022-11-15T22:38:32.552Z,0.70
2022-11-15T22:41:00.494Z,0.80
2022-11-15T22:43:28.452Z,0.70
2022-11-15T22:45:56.987Z,0.73
2022-11-15T22:48:27.230Z,0.75
2022-11-15T22:50:55.489Z,0.82
2022-11-15T22:53:23.146Z,0.75
2022-11-15T22:55:53.243Z,0.77
2022-11-15T22:58:21.442Z,0.80
2022-11-15T23:00:50.632Z,0.88
2022-11-15T23:03:19.342Z,0.80
2022-11-15T23:05:46.943Z,0.88
2022-11-15T23:08:14.847Z,0.75
2022-11-15T23:11:00.197Z,0.73
2022-11-15T23:13:32.228Z,0.70
2022-11-15T23:16:22.215Z,0.68
2022-11-15T23:18:50.827Z,0.70
2022-11-15T23:21:41.322Z,0.65
2022-11-15T23:24:10.047Z,0.70
2022-11-15T23:26:38.195Z,0.80
2022-11-15T23:29:08.570Z,0.85
2022-11-15T23:32:01.606Z,0.75
2022-11-15T23:34:30.285Z,0.75
2022-11-15T23:36:57.867Z,0.77
2022-11-15T23:39:25.360Z,0.88
2022-11-15T23:41:53.118Z,0.73
2022-11-15T23:44:22.047Z,0.90
2022-11-15T23:46:49.591Z,0.77
2022-11-15T23:49:17.206Z,0.77
2022-11-15T23:51:44.769Z,0.85
2022-11-15T23:54:13.768Z,0.82
2022-11-15T23:56:41.564Z,0.85
2022-11-15T23:59:09.133Z,0.85
